createdAt,value
2022-07-28T00:00:08.360Z,17.50
2022-07-28T00:02:35.537Z,17.20
2022-07-28T00:05:02.727Z,17.45
2022-07-28T00:07:29.396Z,18.58
2022-07-28T00:10:00.370Z,16.90
2022-07-28T00:12:27.564Z,16.90
2022-07-28T00:14:54.246Z,18.17
2022-07-28T00:17:21.018Z,17.02
2022-07-28T00:19:47.696Z,19.10
2022-07-28T00:22:14.357Z,17.40
2022-07-28T00:24:41.296Z,17.23
2022-07-28T00:27:08.324Z,17.25
2022-07-28T00:29:42.623Z,17.45
2022-07-28T00:32:17.443Z,16.80
2022-07-28T00:34:44.904Z,17.45
2022-07-28T00:37:14.438Z,16.90
2022-07-28T00:39:41.324Z,16.80
2022-07-28T00:42:09.192Z,17.20
2022-07-28T00:44:35.949Z,19.20
2022-07-28T00:47:02.685Z,16.73
2022-07-28T00:49:29.410Z,15.23
2022-07-28T00:51:57.363Z,16.73
2022-07-28T00:54:24.170Z,17.20
2022-07-28T00:56:51.019Z,16.58
2022-07-28T00:59:17.769Z,16.83
2022-07-28T01:01:44.643Z,17.73
2022-07-28T01:04:12.036Z,19.65
2022-07-28T01:07:07.897Z,16.25
2022-07-28T01:09:53.264Z,17.55
2022-07-28T01:12:29.076Z,17.05
2022-07-28T01:15:03.683Z,18.35
2022-07-28T01:17:44.513Z,17.70
2022-07-28T01:20:29.134Z,17.73
2022-07-28T01:23:05.401Z,19.55
2022-07-28T01:25:34.805Z,20.33
2022-07-28T01:28:28.850Z,18.65
2022-07-28T01:30:58.877Z,20.02
2022-07-28T01:33:32.347Z,20.08
2022-07-28T01:36:03.602Z,19.10
2022-07-28T01:38:33.742Z,19.13
2022-07-28T01:41:02.708Z,18.00
2022-07-28T01:43:33.130Z,18.08
2022-07-28T01:46:01.509Z,17.15
2022-07-28T01:48:30.351Z,19.02
2022-07-28T01:50:57.843Z,19.30
2022-07-28T01:53:26.263Z,17.75
2022-07-28T01:55:53.585Z,18.40
2022-07-28T01:58:23.361Z,18.65
2022-07-28T02:00:51.556Z,19.55
2022-07-28T02:03:21.501Z,20.27
2022-07-28T02:05:50.444Z,20.20
2022-07-28T02:08:20.471Z,16.98
2022-07-28T02:11:09.195Z,16.90
2022-07-28T02:13:38.053Z,16.70
2022-07-28T02:16:07.977Z,19.48
2022-07-28T02:18:37.685Z,20.50
2022-07-28T02:21:06.478Z,16.45
2022-07-28T02:23:35.167Z,17.23
2022-07-28T02:26:04.451Z,21.98
2022-07-28T02:28:31.279Z,19.45
2022-07-28T02:31:05.513Z,18.83
2022-07-28T02:33:59.294Z,18.50
2022-07-28T02:36:28.530Z,16.35
2022-07-28T02:39:01.603Z,18.77
2022-07-28T02:41:32.421Z,18.83
2022-07-28T02:44:02.052Z,18.63
2022-07-28T02:46:50.007Z,18.67
2022-07-28T02:49:21.832Z,20.25
2022-07-28T02:51:51.495Z,18.63
2022-07-28T02:54:20.153Z,20.15
2022-07-28T02:56:53.192Z,20.98
2022-07-28T02:59:24.606Z,19.05
2022-07-28T03:01:52.339Z,18.17
2022-07-28T03:04:42.403Z,20.08
2022-07-28T03:07:10.959Z,20.60
2022-07-28T03:09:43.699Z,20.05
2022-07-28T03:12:10.988Z,18.98
2022-07-28T03:14:38.304Z,19.17
2022-07-28T03:17:05.890Z,21.10
2022-07-28T03:19:32.879Z,19.38
2022-07-28T03:21:59.951Z,18.48
2022-07-28T03:24:29.888Z,17.88
2022-07-28T03:27:14.346Z,18.15
2022-07-28T03:29:44.512Z,18.23
2022-07-28T03:32:11.814Z,18.90
2022-07-28T03:34:39.223Z,17.23
2022-07-28T03:37:13.026Z,17.33
2022-07-28T03:39:47.582Z,18.10
2022-07-28T03:42:17.526Z,18.90
2022-07-28T03:44:47.106Z,19.75
2022-07-28T03:47:14.562Z,18.45
2022-07-28T03:49:41.491Z,18.88
2022-07-28T03:52:08.851Z,16.90
2022-07-28T03:54:35.626Z,18.35
2022-07-28T03:57:03.274Z,18.83
2022-07-28T03:59:30.604Z,20.00
2022-07-28T04:01:57.439Z,19.20
2022-07-28T04:04:25.059Z,17.73
2022-07-28T04:06:51.739Z,19.08
2022-07-28T04:09:18.462Z,19.27
2022-07-28T04:11:45.180Z,21.63
2022-07-28T04:14:16.465Z,19.38
2022-07-28T04:16:46.870Z,18.77
2022-07-28T04:19:13.532Z,17.90
2022-07-28T04:21:40.238Z,20.02
2022-07-28T04:24:11.622Z,18.40
2022-07-28T04:26:38.803Z,19.48
2022-07-28T04:29:05.897Z,19.02
2022-07-28T04:31:33.902Z,17.75
2022-07-28T04:34:00.612Z,20.23
2022-07-28T04:36:27.613Z,19.15
2022-07-28T04:38:54.480Z,18.55
2022-07-28T04:41:21.391Z,18.08
2022-07-28T04:43:48.083Z,19.17
2022-07-28T04:46:15.425Z,18.08
2022-07-28T04:48:42.399Z,18.20
2022-07-28T04:51:09.795Z,17.58
2022-07-28T04:53:38.940Z,21.73
2022-07-28T04:56:05.730Z,18.42
2022-07-28T04:58:32.386Z,19.30
2022-07-28T05:00:59.815Z,17.23
2022-07-28T05:03:26.707Z,16.77
2022-07-28T05:05:54.777Z,16.17
2022-07-28T05:08:25.563Z,15.48
2022-07-28T05:10:53.742Z,16.15
2022-07-28T05:13:20.401Z,15.63
2022-07-28T05:15:47.063Z,15.82
2022-07-28T05:18:13.680Z,16.00
2022-07-28T05:20:40.294Z,16.20
2022-07-28T05:23:09.297Z,15.52
2022-07-28T05:25:37.284Z,15.15
2022-07-28T05:28:04.141Z,14.85
2022-07-28T05:30:31.343Z,14.98
2022-07-28T05:33:01.293Z,15.50
2022-07-28T05:35:28.104Z,14.00
2022-07-28T05:37:54.791Z,13.63
2022-07-28T05:40:21.475Z,15.18
2022-07-28T05:42:48.146Z,14.20
2022-07-28T05:45:17.505Z,14.40
2022-07-28T05:47:49.631Z,14.15
2022-07-28T05:50:17.532Z,15.63
2022-07-28T05:52:45.427Z,14.93
2022-07-28T05:55:12.687Z,13.88
2022-07-28T05:57:40.049Z,15.13
2022-07-28T06:00:12.559Z,12.52
2022-07-28T06:02:40.500Z,12.55
2022-07-28T06:05:08.451Z,13.27
2022-07-28T06:07:43.581Z,13.82
2022-07-28T06:10:13.458Z,14.13
2022-07-28T06:12:45.614Z,14.00
2022-07-28T06:15:18.103Z,13.40
2022-07-28T06:17:44.766Z,13.25
2022-07-28T06:20:12.880Z,13.23
2022-07-28T06:22:48.862Z,14.98
2022-07-28T06:25:18.616Z,12.60
2022-07-28T06:27:46.683Z,12.68
2022-07-28T06:30:13.546Z,13.98
2022-07-28T06:32:40.202Z,13.45
2022-07-28T06:35:07.973Z,13.43
2022-07-28T06:37:37.573Z,13.77
2022-07-28T06:40:05.287Z,13.68
2022-07-28T06:42:34.029Z,14.55
2022-07-28T06:45:00.807Z,13.18
2022-07-28T06:47:27.482Z,14.10
2022-07-28T06:49:54.165Z,12.90
2022-07-28T06:52:22.193Z,13.38
2022-07-28T06:54:53.140Z,13.55
2022-07-28T06:57:27.946Z,13.57
2022-07-28T07:00:03.297Z,14.75
2022-07-28T07:02:30.366Z,13.98
2022-07-28T07:04:57.194Z,13.88
2022-07-28T07:07:23.879Z,14.88
2022-07-28T07:09:51.593Z,14.18
2022-07-28T07:12:18.551Z,14.25
2022-07-28T07:14:45.187Z,13.55
2022-07-28T07:17:11.914Z,12.48
2022-07-28T07:19:38.913Z,14.07
2022-07-28T07:22:05.599Z,11.48
2022-07-28T07:24:32.673Z,13.23
2022-07-28T07:26:59.508Z,14.70
2022-07-28T07:29:26.231Z,11.27
2022-07-28T07:31:58.716Z,11.32
2022-07-28T07:34:25.517Z,11.65
2022-07-28T07:36:52.299Z,10.45
2022-07-28T07:39:23.565Z,9.73
2022-07-28T07:41:50.189Z,11.32
2022-07-28T07:44:17.204Z,10.80
2022-07-28T07:46:44.428Z,10.48
2022-07-28T07:49:13.252Z,10.10
2022-07-28T07:51:39.989Z,10.60
2022-07-28T07:54:06.672Z,9.82
2022-07-28T07:56:46.929Z,10.32
2022-07-28T07:59:20.477Z,10.57
2022-07-28T08:01:50.805Z,10.13
2022-07-28T08:04:18.002Z,9.55
2022-07-28T08:06:55.553Z,9.05
2022-07-28T08:09:29.141Z,10.10
2022-07-28T08:11:56.070Z,9.20
2022-07-28T08:14:22.745Z,9.30
2022-07-28T08:16:52.395Z,9.27
2022-07-28T08:19:21.671Z,10.65
2022-07-28T08:21:48.813Z,11.65
2022-07-28T08:24:17.800Z,9.52
2022-07-28T08:26:59.917Z,9.40
2022-07-28T08:29:27.197Z,10.10
2022-07-28T08:31:54.796Z,8.68
2022-07-28T08:34:31.587Z,8.85
2022-07-28T08:37:05.294Z,9.60
2022-07-28T08:39:33.194Z,8.40
2022-07-28T08:42:09.088Z,10.98
2022-07-28T08:44:49.354Z,8.13
2022-07-28T08:47:16.648Z,8.98
2022-07-28T08:49:43.678Z,10.45
2022-07-28T08:52:12.666Z,9.77
2022-07-28T08:54:45.628Z,8.90
2022-07-28T08:57:20.410Z,8.13
2022-07-28T08:59:49.610Z,8.98
2022-07-28T09:02:17.282Z,8.13
2022-07-28T09:04:46.461Z,7.55
2022-07-28T09:07:13.844Z,9.07
2022-07-28T09:09:42.057Z,8.95
2022-07-28T09:12:11.425Z,9.10
2022-07-28T09:14:38.116Z,8.05
2022-07-28T09:17:06.119Z,9.77
2022-07-28T09:19:34.227Z,8.52
2022-07-28T09:22:02.897Z,8.38
2022-07-28T09:24:32.313Z,8.73
2022-07-28T09:27:06.779Z,10.52
2022-07-28T09:29:35.942Z,9.05
2022-07-28T09:32:04.812Z,8.90
2022-07-28T09:34:55.260Z,8.98
2022-07-28T09:37:27.470Z,8.77
2022-07-28T09:40:04.177Z,11.40
2022-07-28T09:42:47.268Z,11.55
2022-07-28T09:45:22.783Z,9.05
2022-07-28T09:47:51.378Z,9.15
2022-07-28T09:50:21.981Z,9.85
2022-07-28T09:52:48.746Z,9.30
2022-07-28T09:55:15.445Z,9.27
2022-07-28T09:57:45.829Z,9.13
2022-07-28T10:00:27.886Z,8.63
2022-07-28T10:02:54.872Z,10.73
2022-07-28T10:05:21.820Z,8.73
2022-07-28T10:07:51.713Z,10.13
2022-07-28T10:10:21.153Z,8.88
2022-07-28T10:12:47.829Z,8.93
2022-07-28T10:15:34.630Z,8.63
2022-07-28T10:18:03.349Z,9.65
2022-07-28T10:20:32.775Z,10.10
2022-07-28T10:23:05.337Z,9.50
2022-07-28T10:25:34.323Z,9.68
2022-07-28T10:28:03.216Z,8.98
2022-07-28T10:30:36.189Z,9.95
2022-07-28T10:33:09.450Z,10.35
2022-07-28T10:35:45.270Z,9.57
2022-07-28T10:38:26.100Z,9.48
2022-07-28T10:40:55.574Z,9.02
2022-07-28T10:43:23.885Z,9.35
2022-07-28T10:46:05.435Z,9.70
2022-07-28T10:48:33.428Z,10.23
2022-07-28T10:51:00.869Z,9.63
2022-07-28T10:53:33.972Z,9.88
2022-07-28T10:56:10.245Z,10.65
2022-07-28T10:59:04.770Z,8.90
2022-07-28T11:01:49.741Z,9.82
2022-07-28T11:04:51.784Z,9.90
2022-07-28T11:07:20.833Z,9.82
2022-07-28T11:09:48.030Z,8.90
2022-07-28T11:12:17.471Z,10.45
2022-07-28T11:14:45.186Z,10.25
2022-07-28T11:17:24.631Z,12.38
2022-07-28T11:20:24.929Z,10.43
2022-07-28T11:22:46.950Z,8.90
2022-07-28T11:25:20.346Z,8.68
2022-07-28T11:27:51.202Z,9.15
2022-07-28T11:30:33.703Z,9.25
2022-07-28T11:33:01.915Z,9.82
2022-07-28T11:35:53.156Z,10.38
2022-07-28T11:38:20.188Z,9.65
2022-07-28T11:40:49.160Z,9.95
2022-07-28T11:43:35.525Z,9.32
2022-07-28T11:46:09.698Z,9.60
2022-07-28T11:48:41.812Z,10.07
2022-07-28T11:51:10.247Z,10.15
2022-07-28T11:53:50.194Z,8.93
2022-07-28T11:56:31.831Z,8.68
2022-07-28T11:59:03.499Z,8.93
2022-07-28T12:01:38.361Z,9.73
2022-07-28T12:04:13.347Z,9.13
2022-07-28T12:06:43.100Z,9.73
2022-07-28T12:09:13.272Z,9.82
2022-07-28T12:11:41.464Z,9.57
2022-07-28T12:14:10.489Z,10.00
2022-07-28T12:16:42.198Z,9.43
2022-07-28T12:19:11.291Z,8.70
2022-07-28T12:21:46.028Z,9.43
2022-07-28T12:24:19.194Z,8.20
2022-07-28T12:26:49.467Z,9.90
2022-07-28T12:29:20.978Z,9.48
2022-07-28T12:32:02.598Z,10.00
2022-07-28T12:34:32.357Z,9.65
2022-07-28T12:37:04.368Z,9.18
2022-07-28T12:39:34.592Z,8.60
2022-07-28T12:42:05.357Z,8.50
2022-07-28T12:44:41.473Z,8.55
2022-07-28T12:47:12.146Z,9.52
2022-07-28T12:49:43.569Z,8.73
2022-07-28T12:52:21.896Z,10.05
2022-07-28T12:54:54.754Z,10.20
2022-07-28T12:57:50.869Z,8.77
2022-07-28T13:00:21.924Z,8.32
2022-07-28T13:02:51.567Z,8.77
2022-07-28T13:05:39.837Z,8.90
2022-07-28T13:08:06.517Z,9.18
2022-07-28T13:10:33.381Z,10.35
2022-07-28T13:13:05.962Z,8.80
2022-07-28T13:15:33.444Z,8.30
2022-07-28T13:18:00.268Z,9.48
2022-07-28T13:20:27.418Z,10.25
2022-07-28T13:22:54.696Z,9.45
2022-07-28T13:25:22.095Z,9.25
2022-07-28T13:27:55.217Z,7.78
2022-07-28T13:30:23.431Z,8.57
2022-07-28T13:32:50.315Z,9.23
2022-07-28T13:35:18.928Z,8.82
2022-07-28T13:37:47.284Z,9.65
2022-07-28T13:40:15.022Z,10.38
2022-07-28T13:42:53.139Z,11.40
2022-07-28T13:45:24.158Z,9.70
2022-07-28T13:47:51.962Z,10.57
2022-07-28T13:50:19.250Z,12.63
2022-07-28T13:52:45.979Z,8.65
2022-07-28T13:55:13.657Z,8.25
2022-07-28T13:57:44.588Z,9.13
2022-07-28T14:00:18.646Z,10.57
2022-07-28T14:02:47.271Z,8.40
2022-07-28T14:05:22.188Z,7.32
2022-07-28T14:07:49.638Z,10.30
2022-07-28T14:10:18.213Z,7.00
2022-07-28T14:12:46.545Z,8.63
2022-07-28T14:15:14.061Z,7.43
2022-07-28T14:17:43.608Z,8.13
2022-07-28T14:20:14.296Z,8.20
2022-07-28T14:22:41.648Z,7.07
2022-07-28T14:25:08.983Z,8.52
2022-07-28T14:27:35.751Z,8.55
2022-07-28T14:30:04.084Z,8.07
2022-07-28T14:32:32.980Z,7.97
2022-07-28T14:34:59.844Z,8.27
2022-07-28T14:37:29.488Z,7.32
2022-07-28T14:39:56.703Z,8.45
2022-07-28T14:42:23.418Z,8.82
2022-07-28T14:44:50.456Z,9.10
2022-07-28T14:47:17.793Z,9.77
2022-07-28T14:49:57.203Z,7.75
2022-07-28T14:52:24.892Z,8.73
2022-07-28T14:54:51.698Z,9.57
2022-07-28T14:57:18.420Z,9.27
2022-07-28T14:59:45.295Z,9.60
2022-07-28T15:02:12.063Z,9.52
2022-07-28T15:04:38.801Z,9.88
2022-07-28T15:07:05.793Z,8.68
2022-07-28T15:09:32.960Z,9.02
2022-07-28T15:11:59.965Z,9.55
2022-07-28T15:14:28.225Z,9.98
2022-07-28T15:16:54.988Z,11.15
2022-07-28T15:19:21.742Z,10.15
2022-07-28T15:21:49.650Z,8.80
2022-07-28T15:24:17.205Z,10.05
2022-07-28T15:26:46.582Z,10.35
2022-07-28T15:29:13.244Z,9.75
2022-07-28T15:31:45.167Z,9.70
2022-07-28T15:34:12.530Z,9.85
2022-07-28T15:36:39.959Z,10.45
2022-07-28T15:39:09.279Z,10.38
2022-07-28T15:41:35.988Z,9.57
2022-07-28T15:44:04.125Z,11.25
2022-07-28T15:46:33.344Z,11.40
2022-07-28T15:49:04.516Z,11.98
2022-07-28T15:51:32.951Z,10.55
2022-07-28T15:54:01.862Z,11.15
2022-07-28T15:56:30.217Z,10.35
2022-07-28T15:58:58.462Z,12.55
2022-07-28T16:01:29.980Z,11.85
2022-07-28T16:03:58.424Z,10.50
2022-07-28T16:06:26.199Z,10.32
2022-07-28T16:08:53.090Z,10.63
2022-07-28T16:11:20.271Z,10.40
2022-07-28T16:13:46.934Z,11.40
2022-07-28T16:16:16.565Z,10.25
2022-07-28T16:18:43.569Z,10.02
2022-07-28T16:21:11.112Z,12.25
2022-07-28T16:23:37.943Z,11.10
2022-07-28T16:26:07.899Z,10.43
2022-07-28T16:28:36.754Z,10.93
2022-07-28T16:31:03.908Z,11.05
2022-07-28T16:33:33.576Z,11.15
2022-07-28T16:36:01.678Z,12.35
2022-07-28T16:38:28.701Z,12.18
2022-07-28T16:40:57.304Z,12.77
2022-07-28T16:43:24.571Z,11.43
2022-07-28T16:45:51.806Z,10.93
2022-07-28T16:48:19.124Z,12.93
2022-07-28T16:50:58.048Z,10.73
2022-07-28T16:53:37.848Z,9.77
2022-07-28T16:56:25.911Z,12.93
2022-07-28T16:58:52.555Z,10.25
2022-07-28T17:01:20.821Z,9.98
2022-07-28T17:03:51.432Z,10.52
2022-07-28T17:06:18.663Z,11.73
2022-07-28T17:08:45.446Z,11.43
2022-07-28T17:11:14.539Z,11.82
2022-07-28T17:13:45.251Z,9.02
2022-07-28T17:16:13.105Z,9.40
2022-07-28T17:18:42.746Z,14.98
2022-07-28T17:21:13.329Z,11.70
2022-07-28T17:23:40.134Z,11.68
2022-07-28T17:28:59.348Z,11.93
2022-07-28T17:31:33.896Z,11.30
2022-07-28T17:34:08.001Z,12.23
2022-07-28T17:36:35.589Z,10.93
2022-07-28T17:39:02.760Z,15.73
2022-07-28T17:41:30.441Z,14.77
2022-07-28T17:43:57.792Z,13.73
2022-07-28T17:46:26.637Z,11.73
2022-07-28T17:48:54.085Z,13.73
2022-07-28T17:51:21.151Z,14.63
2022-07-28T17:53:48.937Z,13.35
2022-07-28T17:56:16.959Z,14.63
2022-07-28T17:58:43.791Z,14.57
2022-07-28T18:01:12.599Z,12.95
2022-07-28T18:03:58.726Z,12.88
2022-07-28T18:06:32.633Z,12.73
2022-07-28T18:09:07.212Z,13.50
2022-07-28T18:11:55.464Z,12.20
2022-07-28T18:14:26.449Z,14.52
2022-07-28T18:16:58.324Z,14.57
2022-07-28T18:20:21.010Z,13.35
2022-07-28T18:22:53.856Z,11.52
2022-07-28T18:25:57.131Z,12.23
2022-07-28T18:28:47.670Z,11.85
2022-07-28T18:31:48.627Z,12.93
2022-07-28T18:34:41.812Z,13.05
2022-07-28T18:37:45.486Z,13.68
2022-07-28T18:40:15.025Z,12.45
2022-07-28T18:42:45.125Z,12.02
2022-07-28T18:45:13.492Z,12.95
2022-07-28T18:47:46.458Z,13.13
2022-07-28T18:50:31.197Z,12.48
2022-07-28T18:53:07.622Z,11.98
2022-07-28T18:55:34.401Z,12.63
2022-07-28T18:58:01.067Z,12.45
2022-07-28T19:00:36.498Z,13.68
2022-07-28T19:03:03.278Z,10.63
2022-07-28T19:05:36.792Z,12.30
2022-07-28T19:08:08.616Z,10.63
2022-07-28T19:10:35.285Z,12.02
2022-07-28T19:13:02.032Z,12.23
2022-07-28T19:15:28.751Z,12.32
2022-07-28T19:18:10.575Z,11.88
2022-07-28T19:20:45.767Z,10.60
2022-07-28T19:23:13.108Z,11.25
2022-07-28T19:25:40.039Z,13.13
2022-07-28T19:28:09.710Z,10.57
2022-07-28T19:30:36.828Z,12.63
2022-07-28T19:33:04.116Z,13.90
2022-07-28T19:35:31.056Z,12.35
2022-07-28T19:38:00.146Z,14.65
2022-07-28T19:40:32.074Z,13.07
2022-07-28T19:43:00.658Z,12.95
2022-07-28T19:45:27.747Z,11.82
2022-07-28T19:47:59.408Z,12.35
2022-07-28T19:50:26.042Z,10.35
2022-07-28T19:52:54.117Z,12.27
2022-07-28T19:55:26.975Z,10.60
2022-07-28T19:57:56.294Z,10.32
2022-07-28T20:00:23.125Z,11.40
2022-07-28T20:02:49.958Z,10.05
2022-07-28T20:05:16.867Z,13.43
2022-07-28T20:07:43.665Z,11.38
2022-07-28T20:10:10.458Z,11.55
2022-07-28T20:12:37.372Z,11.63
2022-07-28T20:15:06.338Z,10.73
2022-07-28T20:17:38.913Z,11.23
2022-07-28T20:20:11.738Z,11.63
2022-07-28T20:22:40.116Z,10.50
2022-07-28T20:25:09.555Z,12.57
2022-07-28T20:27:43.068Z,10.27
2022-07-28T20:30:11.528Z,10.70
2022-07-28T20:32:44.275Z,10.77
2022-07-28T20:35:12.578Z,11.48
2022-07-28T20:37:40.346Z,12.07
2022-07-28T20:40:09.482Z,11.20
2022-07-28T20:42:37.118Z,10.57
2022-07-28T20:45:05.193Z,11.02
2022-07-28T20:47:36.355Z,11.45
2022-07-28T20:50:10.169Z,12.02
2022-07-28T20:52:39.454Z,11.70
2022-07-28T20:55:07.193Z,11.90
2022-07-28T20:57:34.637Z,12.57
2022-07-28T21:00:01.284Z,11.25
2022-07-28T21:02:28.050Z,12.30
2022-07-28T21:04:54.831Z,10.98
2022-07-28T21:08:04.599Z,11.70
2022-07-28T21:10:12.368Z,13.85
2022-07-28T21:12:39.186Z,10.27
2022-07-28T21:15:07.942Z,11.15
2022-07-28T21:17:34.963Z,11.25
2022-07-28T21:20:01.678Z,11.60
2022-07-28T21:22:28.385Z,10.65
2022-07-28T21:24:55.811Z,10.10
2022-07-28T21:27:23.819Z,10.95
2022-07-28T21:32:19.750Z,11.35
2022-07-28T21:35:09.680Z,11.93
2022-07-28T21:37:39.114Z,9.18
2022-07-28T21:40:10.173Z,10.02
2022-07-28T21:42:37.041Z,9.77
2022-07-28T21:45:04.136Z,10.40
2022-07-28T21:47:41.228Z,10.70
2022-07-28T21:50:08.288Z,10.00
2022-07-28T21:52:37.936Z,10.25
2022-07-28T21:55:07.302Z,9.90
2022-07-28T21:57:34.722Z,11.30
2022-07-28T22:00:02.322Z,11.65
2022-07-28T22:02:29.016Z,10.20
2022-07-28T22:04:55.897Z,11.13
2022-07-28T22:07:22.615Z,8.90
2022-07-28T22:09:49.308Z,9.98
2022-07-28T22:12:15.938Z,9.23
2022-07-28T22:14:42.754Z,9.45
2022-07-28T22:17:10.479Z,10.13
2022-07-28T22:19:37.244Z,10.50
2022-07-28T22:22:03.920Z,9.80
2022-07-28T22:24:30.626Z,11.23
2022-07-28T22:27:00.450Z,11.95
2022-07-28T22:29:28.324Z,9.85
2022-07-28T22:31:59.460Z,10.07
2022-07-28T22:34:26.666Z,10.85
2022-07-28T22:36:53.568Z,9.80
2022-07-28T22:39:20.253Z,11.32
2022-07-28T22:41:48.087Z,11.13
2022-07-28T22:44:15.456Z,10.65
2022-07-28T22:46:42.387Z,11.77
2022-07-28T22:49:10.205Z,9.88
2022-07-28T22:51:36.968Z,9.13
2022-07-28T22:54:03.818Z,9.93
2022-07-28T22:56:34.918Z,10.45
2022-07-28T22:59:07.050Z,10.95
2022-07-28T23:01:35.149Z,9.32
2022-07-28T23:04:03.093Z,10.88
2022-07-28T23:06:30.498Z,13.18
2022-07-28T23:08:57.274Z,11.05
2022-07-28T23:11:23.949Z,9.02
2022-07-28T23:13:50.681Z,10.85
2022-07-28T23:16:17.505Z,8.82
2022-07-28T23:18:44.833Z,10.32
2022-07-28T23:21:11.981Z,9.88
2022-07-28T23:23:38.946Z,12.40
2022-07-28T23:26:05.880Z,10.77
2022-07-28T23:28:33.665Z,10.65
2022-07-28T23:31:00.541Z,9.25
2022-07-28T23:33:54.138Z,10.70
2022-07-28T23:36:16.250Z,11.30
2022-07-28T23:38:53.008Z,10.20
2022-07-28T23:41:19.734Z,11.27
2022-07-28T23:43:49.287Z,11.75
2022-07-28T23:46:16.086Z,11.00
2022-07-28T23:48:43.797Z,10.93
2022-07-28T23:51:10.514Z,10.38
2022-07-28T23:53:39.101Z,9.95
2022-07-28T23:56:05.983Z,10.98
2022-07-28T23:58:32.776Z,11.40
